9°C
Porth, Newquay, Cornwall. UK  Tell A Friend
 Ad **Ad
Updated29/04/2017 02:30 
 


Nearby METAR Reports From


Metar Station     Metar Station     Metar Station     Metar Station     Metar Station
EGHQ Newquay     EGDR Culdrose (navy)     EGDX ST Athan raf     EGDY Yeovitilton (navy)     EGFF Cardiff
EGHH Bournemouth     EGBB Birmingham     EGKA Shoreham-By-Sea     EGOP Pembry Sands     EGTE Exeter Airport
EGGD Bristol     EGHE Scilly     EGJA Alderney     EGJB Guernsey     EGJJ Jersey
France       LFRC Cherbourg/Mauper     LFRB Brest/Guipavas     LFRO Lannion/Servel        
More Metars Here                                
EGHQ - Newquay, United Kingdom
Updated: 28/04/2017 20:50

NOT Current
Partly Cloudy
Partly Cloudy
 Wind from W
Wind: W 10 mph , 17 km/h, 9 kts
Temperature: 9°C
Wind Chill: 7°C
Dew Point: 3°C
Humidity: 66%
Barometer: 1017 hPa
Clouds: Partly Cloudy
Visibility: 6 miles , 10 km
Cloud details: Few Clouds 792 m
Partly Cloudy 1372 m
2017/04/28 19:50 EGHQ 281950Z 26009KT 9999 FEW026 SCT045 09/03 Q1017
EGDR - Culdrose (navy), United Kingdom
Updated: 29/04/2017 01:50
Overcast
Overcast
 Wind from S
Wind: S 7 mph , 11 km/h, 6 kts
Temperature: 8°C
Wind Chill: 6°C
Dew Point: 6°C
Humidity: 87%
Barometer: 1015 hPa
Clouds: Overcast
Visibility: 6 miles , 10 km
Cloud details: Overcast 1311 m
2017/04/29 00:50 EGDR 290050Z AUTO 17006KT 9999 // OVC043/// 08/06 Q1015
 
EGHC - Lands End, United Kingdom
Updated: 28/04/2017 18:20

NOT Current
Mostly Cloudy
Mostly Cloudy
 Wind from W
Wind: W 8 mph , 13 km/h, 7 kts
Temperature: 10°C
Wind Chill: 8°C
Dew Point: 5°C
Humidity: 71%
Barometer: 1017 hPa
Clouds: Mostly Cloudy
Visibility: 6 miles , 10 km
Cloud details: Partly Cloudy 762 m
Mostly Cloudy 1219 m
2017/04/28 17:20 EGHC 281720Z 27007KT 9999 SCT025 BKN040 10/05 Q1017
EGHE - Scilly Saint Mar, United Kingdom
Updated: 28/04/2017 18:20

NOT Current
Few Clouds
Few Clouds
 Wind from WSW
Wind: WSW 7 mph , 11 km/h, 6 kts
Temperature: 12°C
Dew Point: 5°C
Humidity: 63%
Barometer: 1019 hPa
Clouds: Few Clouds
Visibility: 6 miles , 10 km
Cloud details: Few Clouds 792 m
2017/04/28 17:20 EGHE 281720Z 24006KT 9999 FEW026 12/05 Q1019
 
EGTE - Exeter Airport, United Kingdom
Updated: 29/04/2017 01:50
Mostly Cloudy
Mostly Cloudy
 Wind from varies
Wind: varies 1 mph , 2 km/h, 1 kts
Temperature: 7°C
Dew Point: 4°C
Humidity: 81%
Barometer: 1016 hPa
Clouds: Mostly Cloudy
Visibility: 6 miles , 10 km
Cloud details: Mostly Cloudy 1402 m
2017/04/29 00:50 EGTE 290050Z VRB01KT 9999 BKN046 07/04 Q1016
EGOP - Pembry Sands, United Kingdom
Updated: 29/04/2017 01:50
Overcast
Overcast
 Wind from S
Wind: S 13 mph , 20 km/h, 11 kts
Temperature: 10°C
Wind Chill: 7°C
Dew Point: 5°C
Humidity: 71%
Barometer: 1015 hPa
Clouds: Overcast
Visibility: 6 miles , 10 km
Cloud details: Overcast 1433 m
2017/04/29 00:50 EGOP 290050Z AUTO 19011KT 9999 // OVC047/// 10/05 Q1015
 
EGDX - St Athan Raf, United Kingdom
Updated: 29/04/2017 01:50
Overcast
Overcast
 Wind from NNW
Wind: NNW 1 mph , 2 km/h, 1 kts
Temperature: 8°C
Dew Point: 4°C
Humidity: 76%
Barometer: 1015 hPa
Clouds: Overcast
Visibility: 6 miles , 10 km
Cloud details: Overcast 1158 m
2017/04/29 00:50 EGDX 290050Z AUTO 33001KT 9999 OVC038/// 08/04 Q1015
EGFF - Cardiff-Wales Ar, United Kingdom
Updated: 29/04/2017 02:20
Overcast
Overcast
 Wind from varies
Wind: varies 2 mph , 4 km/h, 2 kts
Temperature: 8°C
Dew Point: 4°C
Humidity: 76%
Barometer: 1016 hPa
Clouds: Overcast
Visibility: 6 miles , 10 km
Cloud details: Overcast 1036 m
2017/04/29 01:20 EGFF 290120Z AUTO VRB02KT 9999 OVC034 08/04 Q1016
 
EGDY - Yeovilton (navy), United Kingdom
Updated: 29/04/2017 01:50
Overcast
Overcast
 Wind from S
Wind: S 1 mph , 2 km/h, 1 kts
Temperature: 8°C
Dew Point: 4°C
Humidity: 76%
Barometer: 1016 hPa
Clouds: Overcast
Visibility: 6 miles , 10 km
Cloud details: Overcast 1341 m
2017/04/29 00:50 EGDY 290050Z AUTO 17001KT 9999 OVC044/// 08/04 Q1016
EGGD - Bristol/Lulsgate, United Kingdom
Updated: 29/04/2017 02:20
Overcast
Overcast
 Wind from SSW
Wind: SSW 3 mph , 6 km/h, 3 kts
Temperature: 7°C
Dew Point: 1°C
Humidity: 66%
Barometer: 1016 hPa
Clouds: Overcast
Visibility: 6 miles , 10 km
Cloud details: Overcast 1250 m
2017/04/29 01:20 EGGD 290120Z AUTO 21003KT 9999 OVC041 07/01 Q1016
 
EGBB - Birmingham Airpo, United Kingdom
Updated: 29/04/2017 02:20
Clear
Clear
 Wind from SW
Wind: SW 5 mph , 7 km/h, 4 kts
Temperature: 7°C
Wind Chill: 6°C
Dew Point: 7°C
Humidity: 100%
Barometer: 1015 hPa
Summary: Clear
Visibility: greater than 7 miles , 10 km
2017/04/29 01:20 EGBB 290120Z 23004KT CAVOK 07/07 Q1015
EGHH - Bournemouth Airp, United Kingdom
Updated: 28/04/2017 23:20

NOT Current
Clear
Clear
 Wind from varies
Wind: varies 3 mph , 6 km/h, 3 kts
Temperature: 5°C
Dew Point: 4°C
Humidity: 93%
Barometer: 1017 hPa
Summary: Clear
Visibility: greater than 7 miles , 10 km
2017/04/28 22:20 EGHH 282220Z VRB03KT CAVOK 05/04 Q1017
 
EGKA - Shoreham-By-Sea, United Kingdom
Updated: 28/04/2017 19:50

NOT Current
Partly Cloudy
Partly Cloudy
 Wind from WSW
Wind: WSW 9 mph , 15 km/h, 8 kts
Temperature: 10°C
Wind Chill: 8°C
Dew Point: 8°C
Humidity: 88%
Barometer: 1016 hPa
Clouds: Partly Cloudy
Visibility: 6 miles , 10 km
Cloud details: Partly Cloudy 1463 m
2017/04/28 18:50 EGKA 281850Z 24008KT 9999 SCT048 10/08 Q1016
EGJA - Alderney/Channel, United Kingdom
Updated: 28/04/2017 19:20

NOT Current
Few Clouds
Few Clouds
 Wind from W
Wind: W 6 mph , 9 km/h, 5 kts
Temperature: 8°C
Wind Chill: 6°C
Dew Point: 6°C
Humidity: 87%
Barometer: 1018 hPa
Clouds: Few Clouds
Visibility: 6 miles , 10 km
Cloud details: Few Clouds 549 m
2017/04/28 18:20 EGJA 281820Z 26005KT 9999 FEW018 08/06 Q1018
 
EGJB - Guernsey Airport, United Kingdom
Updated: 28/04/2017 20:50

NOT Current
Few Clouds
Few Clouds
 Wind from W
Wind: W 5 mph , 7 km/h, 4 kts
Temperature: 9°C
Wind Chill: 8°C
Dew Point: 6°C
Humidity: 82%
Barometer: 1018 hPa
Clouds: Few Clouds
Visibility: 6 miles , 10 km
Cloud details: Few Clouds 579 m
2017/04/28 19:50 EGJB 281950Z 26004KT 9999 FEW019 09/06 Q1018
EGJJ - Jersey Airport, United Kingdom
Updated: 28/04/2017 21:50

NOT Current
Few Clouds
Few Clouds
 Wind from NW
Wind: NW 3 mph , 6 km/h, 3 kts
Temperature: 9°C
Dew Point: 6°C
Humidity: 82%
Barometer: 1018 hPa
Clouds: Few Clouds
Visibility: 6 miles , 10 km
Cloud details: Few Clouds 610 m
2017/04/28 20:50 EGJJ 282050Z 32003KT 9999 FEW020 09/06 Q1018 NOSIG
 
LFRC - Cherbourg/Mauper, France
Updated: 29/04/2017 02:00
Clear
Clear
 Wind from S
Wind: S 5 mph , 7 km/h, 4 kts
Temperature: 4°C
Wind Chill: 2°C
Dew Point: 4°C
Humidity: 100%
Barometer: 1017 hPa
Summary: Clear
Visibility: greater than 7 miles , 10 km
2017/04/29 01:00 LFRC 290100Z AUTO 17004KT CAVOK 04/04 Q1017
LFRB - Brest/Guipavas, France
Updated: 29/04/2017 02:00
Clear
Clear
 Wind from SE
Wind: SE 6 mph , 9 km/h, 5 kts
Temperature: 4°C
Wind Chill: 2°C
Dew Point: 3°C
Humidity: 93%
Barometer: 1017 hPa
Summary: Clear
Visibility: greater than 7 miles , 10 km
2017/04/29 01:00 LFRB 290100Z AUTO 13005KT CAVOK 04/03 Q1017 NOSIG
 
LFRO - Lannion/Servel, France
Updated: 29/04/2017 02:00
Clear
Clear
 Wind from SE
Wind: SE 5 mph , 7 km/h, 4 kts
Temperature: 5°C
Wind Chill: 3°C
Dew Point: 3°C
Humidity: 87%
Barometer: 1017 hPa
Summary: Clear
Visibility: greater than 7 miles , 10 km
2017/04/29 01:00 LFRO 290100Z AUTO 13004KT CAVOK 05/03 Q1017

# Note Plymouth airport closed 23/12/2011

Metar, brief description

METAR is a format for reporting weather information. A METAR weather report is predominantly used by pilots in fulfillment of a part of a pre-flight weather briefing, and by meteorologists, who use aggregated METAR information to assist in weather forecasting.

Raw METAR is the most popular format in the world for the transmission of weather data. Each METAR report contains essential information about the current weather conditions: Temperature, Dew Point, Barometric Pressure, Wind Speed and Direction, Visibility, Clouds Cover, Current Weather (Rain, Thunderstorms, Hail, Snow and so on...), here is an example of a raw metar report for EGHQ (Newquay airport).
METAR not available